createdAt,value
2024-03-13T00:01:16.113Z,99.90
2024-03-13T00:03:44.010Z,99.90
2024-03-13T00:06:31.655Z,99.90
2024-03-13T00:09:51.251Z,99.90
2024-03-13T00:16:05.953Z,99.90
2024-03-13T00:19:47.789Z,99.90
2024-03-13T00:22:20.294Z,99.90
2024-03-13T00:25:14.014Z,99.90
2024-03-13T00:27:43.554Z,99.90
2024-03-13T00:30:11.427Z,99.90
2024-03-13T00:36:01.119Z,39.70
2024-03-13T00:38:30.005Z,99.90
2024-03-13T00:40:57.310Z,99.90
2024-03-13T00:43:27.108Z,99.90
2024-03-13T00:46:19.110Z,94.80
2024-03-13T00:48:46.304Z,99.90
2024-03-13T00:51:57.783Z,99.90
2024-03-13T00:54:26.168Z,99.90
2024-03-13T00:56:53.614Z,99.90
2024-03-13T00:59:20.730Z,99.90
2024-03-13T01:01:49.839Z,99.90
2024-03-13T01:04:19.178Z,99.90
2024-03-13T01:06:46.637Z,99.90
2024-03-13T01:09:16.326Z,99.90
2024-03-13T01:11:43.609Z,99.90
2024-03-13T01:14:16.493Z,99.90
2024-03-13T01:16:43.815Z,99.90
2024-03-13T01:19:11.327Z,99.90
2024-03-13T01:22:25.353Z,90.00
2024-03-13T01:24:57.951Z,99.90
2024-03-13T01:27:25.266Z,99.90
2024-03-13T01:34:21.314Z,99.90
2024-03-13T01:41:03.218Z,99.90
2024-03-13T01:44:20.068Z,99.90
2024-03-13T01:48:24.070Z,99.90
2024-03-13T01:51:12.819Z,99.90
2024-03-13T01:54:31.386Z,99.90
2024-03-13T01:57:14.533Z,99.90
2024-03-13T02:00:11.414Z,99.90
2024-03-13T02:05:30.505Z,99.90
2024-03-13T02:07:57.515Z,99.90
2024-03-13T02:10:34.196Z,99.90
2024-03-13T02:16:22.764Z,99.90
2024-03-13T02:18:54.946Z,99.90
2024-03-13T02:21:22.200Z,1.00
2024-03-13T02:23:49.213Z,44.60
2024-03-13T02:27:13.408Z,38.50
2024-03-13T02:29:42.818Z,91.00
2024-03-13T02:32:13.940Z,99.90
2024-03-13T02:34:43.097Z,99.90
2024-03-13T02:37:33.629Z,99.90
2024-03-13T02:44:40.950Z,4.00
2024-03-13T02:47:08.461Z,1.00
2024-03-13T02:49:38.825Z,17.20
2024-03-13T02:52:10.343Z,57.30
2024-03-13T02:54:38.435Z,89.80
2024-03-13T02:57:07.811Z,99.90
2024-03-13T02:59:35.915Z,51.40
2024-03-13T03:02:09.483Z,1.00
2024-03-13T03:04:36.974Z,1.00
2024-03-13T03:07:04.386Z,7.30
2024-03-13T03:09:31.867Z,24.20
2024-03-13T03:12:00.417Z,7.00
2024-03-13T03:17:16.200Z,43.40
2024-03-13T03:23:25.047Z,1.00
2024-03-13T03:25:52.477Z,1.00
2024-03-13T03:28:21.108Z,1.00
2024-03-13T03:30:52.950Z,1.00
2024-03-13T03:33:20.397Z,1.00
2024-03-13T03:35:47.590Z,1.00
2024-03-13T03:38:14.876Z,23.20
2024-03-13T03:40:46.825Z,41.00
2024-03-13T03:44:21.364Z,58.00
2024-03-13T03:46:48.857Z,32.20
2024-03-13T03:49:53.332Z,1.00
2024-03-13T03:52:20.515Z,23.20
2024-03-13T03:54:51.257Z,99.90
2024-03-13T03:57:21.189Z,99.90
2024-03-13T03:59:48.490Z,99.90
2024-03-13T04:02:18.329Z,99.90
2024-03-13T04:05:44.913Z,99.90
2024-03-13T04:08:12.248Z,99.90
2024-03-13T04:10:44.310Z,99.90
2024-03-13T04:13:12.190Z,99.90
2024-03-13T04:15:39.602Z,99.90
2024-03-13T04:18:07.477Z,99.90
2024-03-13T04:20:38.405Z,99.90
2024-03-13T04:23:08.989Z,99.90
2024-03-13T04:29:38.981Z,20.00
2024-03-13T04:32:53.896Z,1.00
2024-03-13T04:35:23.732Z,1.00
2024-03-13T04:37:52.016Z,1.00
2024-03-13T04:40:24.281Z,1.00
2024-03-13T04:42:51.860Z,1.00
2024-03-13T04:46:15.048Z,1.00
2024-03-13T04:48:42.541Z,1.00
2024-03-13T04:52:05.392Z,1.00
2024-03-13T04:54:34.981Z,1.00
2024-03-13T04:57:02.348Z,1.00
2024-03-13T04:59:29.445Z,1.00
2024-03-13T05:01:56.861Z,1.00
2024-03-13T05:07:19.881Z,1.00
2024-03-13T05:09:47.722Z,1.00
2024-03-13T05:12:47.151Z,1.00
2024-03-13T05:15:16.712Z,1.00
2024-03-13T05:17:43.901Z,1.00
2024-03-13T05:20:14.029Z,1.00
2024-03-13T05:22:43.631Z,1.00
2024-03-13T05:25:18.639Z,1.00
2024-03-13T05:31:38.531Z,1.00
2024-03-13T05:35:03.673Z,1.00
2024-03-13T05:37:32.591Z,1.00
2024-03-13T05:40:03.140Z,1.00
2024-03-13T05:42:30.491Z,1.00
2024-03-13T05:45:01.007Z,1.00
2024-03-13T05:47:29.438Z,1.00
2024-03-13T05:49:56.578Z,1.00
2024-03-13T05:52:23.882Z,1.00
2024-03-13T05:54:51.556Z,1.00
2024-03-13T05:57:23.252Z,1.00
2024-03-13T05:59:51.607Z,28.00
2024-03-13T06:02:19.341Z,66.80
2024-03-13T06:04:49.379Z,99.50
2024-03-13T06:07:19.073Z,99.90
2024-03-13T06:09:46.184Z,99.90
2024-03-13T06:12:13.839Z,99.90
2024-03-13T06:14:40.741Z,99.90
2024-03-13T06:17:07.897Z,99.90
2024-03-13T06:19:36.365Z,99.90
2024-03-13T06:22:03.513Z,99.90
2024-03-13T06:24:33.640Z,99.90
2024-03-13T06:27:02.114Z,99.90
2024-03-13T06:29:47.638Z,99.90
2024-03-13T06:32:16.254Z,99.90
2024-03-13T06:34:43.239Z,90.00
2024-03-13T06:37:10.513Z,95.10
2024-03-13T06:39:37.551Z,99.90
2024-03-13T06:42:04.762Z,99.90
2024-03-13T06:44:32.029Z,99.90
2024-03-13T06:46:59.008Z,99.90
2024-03-13T06:49:26.284Z,99.90
2024-03-13T06:51:53.708Z,99.90
2024-03-13T06:54:20.863Z,99.90
2024-03-13T06:56:48.861Z,99.90
2024-03-13T06:59:18.644Z,99.90
2024-03-13T07:01:49.166Z,99.90
2024-03-13T07:04:16.231Z,99.90
2024-03-13T07:06:43.496Z,99.90
2024-03-13T07:09:10.805Z,99.90
2024-03-13T07:11:38.545Z,99.90
2024-03-13T07:14:07.817Z,99.90
2024-03-13T07:16:34.851Z,99.90
2024-03-13T07:19:01.872Z,99.90
2024-03-13T07:21:29.963Z,99.90
2024-03-13T07:23:57.368Z,99.90
2024-03-13T07:26:26.209Z,99.90
2024-03-13T07:28:56.800Z,99.90
2024-03-13T07:31:27.655Z,99.90
2024-03-13T07:33:58.075Z,99.90
2024-03-13T07:36:28.717Z,99.90
2024-03-13T07:38:56.472Z,99.90
2024-03-13T07:41:26.633Z,99.90
2024-03-13T07:43:56.646Z,99.90
2024-03-13T07:46:29.711Z,99.90
2024-03-13T07:49:01.006Z,99.90
2024-03-13T07:51:28.081Z,99.90
2024-03-13T07:53:57.741Z,99.90
2024-03-13T07:56:27.296Z,99.90
2024-03-13T08:02:47.816Z,99.90
2024-03-13T08:05:39.383Z,99.90
2024-03-13T09:07:14.115Z,1.00
2024-03-13T09:09:46.846Z,1.00
2024-03-13T09:12:41.847Z,1.00
2024-03-13T09:15:18.181Z,1.00
2024-03-13T09:17:54.329Z,1.00
2024-03-13T09:26:50.759Z,1.00
2024-03-13T09:29:27.746Z,1.00
2024-03-13T09:32:23.122Z,1.00
2024-03-13T09:34:56.489Z,1.00
2024-03-13T09:37:43.759Z,1.00
2024-03-13T09:40:18.790Z,1.00
2024-03-13T09:43:00.632Z,1.00
2024-03-13T09:45:41.251Z,1.00
2024-03-13T09:48:16.678Z,1.00
2024-03-13T09:50:56.787Z,1.00
2024-03-13T09:59:11.037Z,99.90
2024-03-13T10:09:04.043Z,99.90
2024-03-13T10:11:46.647Z,99.90
2024-03-13T10:27:46.908Z,99.90
2024-03-13T10:30:48.629Z,99.90
2024-03-13T10:33:38.559Z,99.90
2024-03-13T10:36:25.078Z,49.50
2024-03-13T10:42:08.782Z,99.90
2024-03-13T10:48:42.702Z,99.90
2024-03-13T11:13:56.025Z,24.80
2024-03-13T11:16:25.435Z,11.20
2024-03-13T11:18:53.709Z,28.80
2024-03-13T11:22:12.965Z,32.90
2024-03-13T11:27:43.762Z,4.40
2024-03-13T11:30:19.424Z,3.20
2024-03-13T11:35:49.845Z,1.00
2024-03-13T11:38:19.780Z,1.00
2024-03-13T11:40:56.126Z,1.00
2024-03-13T13:02:35.148Z,1.00
2024-03-13T13:18:51.897Z,1.00
2024-03-13T13:22:05.020Z,1.00
2024-03-13T13:25:12.698Z,1.00
2024-03-13T13:27:47.437Z,1.00
2024-03-13T13:30:20.031Z,1.00
2024-03-13T13:32:57.770Z,1.00
2024-03-13T13:35:28.756Z,1.00
2024-03-13T13:44:34.415Z,1.00
2024-03-13T13:47:03.064Z,1.00
2024-03-13T14:54:43.570Z,99.90
2024-03-13T15:12:59.267Z,99.90
2024-03-13T15:41:34.124Z,99.90
2024-03-13T16:20:35.108Z,1.00
2024-03-13T16:27:09.696Z,1.00
2024-03-13T16:43:49.420Z,1.00
2024-03-13T16:58:09.542Z,1.00
2024-03-13T17:44:14.388Z,99.90
2024-03-13T17:49:55.738Z,99.90
2024-03-13T18:02:19.220Z,99.90
2024-03-13T18:04:46.848Z,99.90
2024-03-13T18:07:15.207Z,99.90
2024-03-13T18:10:12.687Z,99.90
2024-03-13T18:12:46.563Z,99.90
2024-03-13T18:19:06.816Z,99.90
2024-03-13T18:21:39.449Z,99.90
2024-03-13T18:24:08.863Z,99.90
2024-03-13T18:26:43.872Z,99.90
2024-03-13T18:29:19.261Z,99.90
2024-03-13T18:31:51.112Z,99.90
2024-03-13T18:34:22.394Z,99.90
2024-03-13T18:36:57.567Z,99.90
2024-03-13T18:39:30.273Z,99.90
2024-03-13T18:42:04.589Z,99.90
2024-03-13T18:44:35.584Z,99.90
2024-03-13T18:47:12.486Z,99.90
2024-03-13T18:50:05.073Z,99.90
2024-03-13T18:52:31.664Z,99.90
2024-03-13T18:55:04.592Z,99.90
2024-03-13T19:03:30.714Z,99.90
2024-03-13T19:06:04.728Z,99.90
2024-03-13T19:08:42.009Z,99.90
2024-03-13T19:11:24.547Z,99.90
2024-03-13T19:13:54.002Z,99.90
2024-03-13T19:16:29.341Z,99.90
2024-03-13T19:19:00.044Z,99.90
2024-03-13T19:21:33.327Z,99.90
2024-03-13T21:24:14.713Z,99.90
2024-03-13T21:38:02.182Z,99.90
2024-03-13T21:47:58.397Z,99.90
2024-03-13T21:57:07.013Z,99.90
2024-03-13T22:47:13.571Z,99.90
2024-03-13T22:49:57.097Z,99.90
